Time;durP1;ratioP1;P1;durP2;ratioP2;P2;SDS_P1;SDS_P2;PMS_P1;PMS_P2;Temp;Humidity;BMP_temperature;BMP_pressure;BME280_temperature;BME280_humidity;BME280_pressure;Samples;Min_cycle;Max_cycle;Signal;HPM_P1;HPM_P2
2022/06/09 00:01:40;;;;;;;19.97;10.37;;;14.90;99.90;;;;;;5058457;28;20432;-77
2022/06/09 00:04:30;;;;;;;17.90;9.40;;;14.90;99.90;;;;;;5054367;28;20439;-77
2022/06/09 00:07:05;;;;;;;15.80;9.43;;;15.00;99.90;;;;;;5030057;28;20431;-77
2022/06/09 00:09:39;;;;;;;19.03;9.20;;;15.00;99.90;;;;;;5057378;28;20507;-77
2022/06/09 00:12:06;;;;;;;24.50;11.67;;;15.00;99.90;;;;;;5037623;28;20811;-77
2022/06/09 00:14:32;;;;;;;17.50;10.17;;;14.90;99.90;;;;;;5040506;28;20425;-77
2022/06/09 00:16:58;;;;;;;18.53;9.10;;;14.90;99.90;;;;;;5057073;28;20786;-78
2022/06/09 00:19:23;;;;;;;24.17;12.10;;;14.90;99.90;;;;;;5053570;28;20511;-76
2022/06/09 00:21:49;;;;;;;18.70;9.73;;;14.90;99.90;;;;;;5036200;28;20571;-76
2022/06/09 00:24:16;;;;;;;19.63;10.30;;;14.90;99.90;;;;;;5051514;28;20186;-77
2022/06/09 00:26:41;;;;;;;24.73;12.07;;;;;;;;;;5061100;28;20178;-76
2022/06/09 00:29:07;;;;;;;22.30;10.60;;;14.90;99.90;;;;;;5057567;28;20435;-76
2022/06/09 00:31:33;;;;;;;21.57;10.27;;;14.90;99.90;;;;;;5059620;28;20226;-78
2022/06/09 00:33:59;;;;;;;24.90;11.93;;;14.90;99.90;;;;;;5051044;28;20190;-77
2022/06/09 00:36:25;;;;;;;19.83;11.00;;;14.90;99.90;;;;;;5054559;28;20398;-77
2022/06/09 00:38:50;;;;;;;26.70;12.50;;;14.80;99.90;;;;;;5039028;28;20566;-76
2022/06/09 00:41:16;;;;;;;17.93;10.00;;;14.80;99.90;;;;;;5054766;28;20182;-78
2022/06/09 00:43:43;;;;;;;16.87;9.20;;;14.80;99.90;;;;;;5055165;28;20257;-76
2022/06/09 00:46:25;;;;;;;18.00;10.17;;;14.80;99.90;;;;;;5052649;28;20579;-76
2022/06/09 00:48:55;;;;;;;22.80;12.07;;;14.70;99.90;;;;;;5036439;28;20829;-75
2022/06/09 00:51:44;;;;;;;19.83;9.77;;;14.60;99.90;;;;;;5051574;28;20452;-77
2022/06/09 00:54:16;;;;;;;19.60;10.77;;;14.60;99.90;;;;;;5052163;28;20600;-76
2022/06/09 00:56:46;;;;;;;23.80;10.67;;;14.50;99.90;;;;;;5061908;28;20494;-76
2022/06/09 00:59:17;;;;;;;15.93;8.90;;;14.50;99.90;;;;;;5051157;28;20550;-77
2022/06/09 01:01:43;;;;;;;17.03;8.57;;;14.60;99.90;;;;;;5045687;28;20432;-76
2022/06/09 01:04:12;;;;;;;16.63;8.60;;;14.50;99.90;;;;;;5061512;28;20962;-77
2022/06/09 01:06:45;;;;;;;19.33;9.90;;;14.50;99.90;;;;;;5059809;28;20433;-77
2022/06/09 01:09:14;;;;;;;17.70;9.27;;;14.50;99.90;;;;;;5056744;28;20437;-76
2022/06/09 01:11:41;;;;;;;21.20;10.83;;;14.50;99.90;;;;;;5041116;28;20495;-77
2022/06/09 01:14:13;;;;;;;19.20;10.67;;;14.50;99.90;;;;;;5062314;28;20440;-77
2022/06/09 01:17:14;;;;;;;14.80;8.60;;;14.50;99.90;;;;;;5063450;28;20448;-77
2022/06/09 01:20:01;;;;;;;11.53;7.30;;;14.50;99.90;;;;;;5000550;28;20431;-77
2022/06/09 01:23:00;;;;;;;29.50;12.47;;;14.40;99.90;;;;;;4997560;28;20871;-76
2022/06/09 01:25:51;;;;;;;31.20;13.20;;;14.40;99.90;;;;;;5005972;28;21018;-76
2022/06/09 01:28:35;;;;;;;18.50;9.07;;;14.30;99.90;;;;;;4973246;28;20502;-76
2022/06/09 01:31:07;;;;;;;24.20;12.03;;;14.30;99.90;;;;;;4992889;28;20446;-77
2022/06/09 01:33:52;;;;;;;27.93;12.60;;;14.30;99.90;;;;;;4993070;28;20479;-77
2022/06/09 01:36:41;;;;;;;17.17;9.53;;;14.30;99.90;;;;;;4984533;28;20429;-76
2022/06/09 01:39:07;;;;;;;24.53;11.10;;;14.30;99.90;;;;;;4974452;28;20500;-77
2022/06/09 01:41:34;;;;;;;14.73;8.80;;;14.30;99.90;;;;;;4984695;28;20460;-77
2022/06/09 01:44:01;;;;;;;22.97;11.40;;;14.30;99.90;;;;;;4996503;28;20509;-76
2022/06/09 01:46:32;;;;;;;15.83;8.50;;;14.30;99.90;;;;;;5002094;28;20430;-76
2022/06/09 01:49:10;;;;;;;22.77;11.10;;;14.20;99.90;;;;;;4991073;28;20451;-77
2022/06/09 01:51:40;;;;;;;20.10;9.57;;;14.20;99.90;;;;;;4999990;28;20906;-77
2022/06/09 01:54:12;;;;;;;22.33;10.33;;;14.10;99.90;;;;;;4996064;28;20435;-77
2022/06/09 01:56:52;;;;;;;25.90;12.47;;;14.10;99.90;;;;;;5053789;28;20424;-77
2022/06/09 01:59:34;;;;;;;14.60;7.63;;;14.10;99.90;;;;;;5045819;28;20506;-77
2022/06/09 02:02:04;;;;;;;24.53;11.20;;;14.10;99.90;;;;;;5036331;28;20776;-77
2022/06/09 02:04:50;;;;;;;18.97;9.07;;;14.00;99.90;;;;;;5058074;28;20471;-77
2022/06/09 02:07:17;;;;;;;14.83;7.00;;;13.90;99.90;;;;;;5052816;28;20523;-77
2022/06/09 02:09:43;;;;;;;20.10;9.60;;;13.90;99.90;;;;;;5045362;28;20432;-76
2022/06/09 02:12:12;;;;;;;20.47;8.07;;;13.90;99.90;;;;;;5059037;28;20922;-77
2022/06/09 02:14:43;;;;;;;16.83;7.77;;;13.90;99.90;;;;;;5062191;28;20187;-77
2022/06/09 02:17:09;;;;;;;21.50;8.43;;;13.90;99.90;;;;;;5050655;28;21016;-77
2022/06/09 02:19:37;;;;;;;24.10;10.23;;;13.80;99.90;;;;;;5037288;28;20409;-77
2022/06/09 02:22:08;;;;;;;16.97;7.93;;;13.90;99.90;;;;;;5042525;28;20670;-77
2022/06/09 02:24:34;;;;;;;17.27;8.60;;;13.80;99.90;;;;;;5051602;28;20421;-77
2022/06/09 02:27:00;;;;;;;15.70;6.30;;;13.80;99.90;;;;;;5060209;28;20815;-76
2022/06/09 02:29:27;;;;;;;15.30;6.63;;;13.80;99.90;;;;;;5062499;28;20800;-77
2022/06/09 02:31:52;;;;;;;17.07;7.63;;;13.80;99.90;;;;;;5052353;28;20465;-77
2022/06/09 02:34:18;;;;;;;15.33;6.77;;;13.80;99.90;;;;;;5053753;28;20424;-77
2022/06/09 02:36:44;;;;;;;18.60;7.57;;;13.70;99.90;;;;;;5034958;28;20567;-76
2022/06/09 02:39:09;;;;;;;18.70;7.97;;;13.70;99.90;;;;;;5066017;28;20209;-76
2022/06/09 02:41:35;;;;;;;16.47;6.80;;;13.70;99.90;;;;;;5036127;28;20270;-75
2022/06/09 02:44:01;;;;;;;17.47;7.43;;;13.70;99.90;;;;;;5041408;28;20215;-76
2022/06/09 02:46:26;;;;;;;21.53;7.93;;;13.60;99.90;;;;;;5054772;28;20255;-77
2022/06/09 02:48:53;;;;;;;16.10;7.73;;;13.50;99.90;;;;;;5041061;28;20210;-76
2022/06/09 02:51:30;;;;;;;21.23;8.83;;;13.50;99.90;;;;;;5061694;28;20178;-77
2022/06/09 02:53:58;;;;;;;20.43;8.43;;;13.60;99.90;;;;;;5049490;28;20440;-76
2022/06/09 02:56:25;;;;;;;13.97;7.07;;;13.50;99.90;;;;;;5038102;28;20423;-76
2022/06/09 02:58:51;;;;;;;18.57;8.50;;;13.50;99.90;;;;;;5051019;28;20547;-76
2022/06/09 03:01:18;;;;;;;15.87;7.57;;;13.50;99.90;;;;;;5039211;28;20517;-76
2022/06/09 03:03:44;;;;;;;14.20;7.20;;;13.50;99.90;;;;;;5063062;28;20441;-76
2022/06/09 03:06:10;;;;;;;26.63;9.53;;;13.40;99.90;;;;;;5059182;28;20969;-76
2022/06/09 03:08:36;;;;;;;18.60;8.47;;;13.40;99.90;;;;;;5056001;28;20241;-76
2022/06/09 03:11:01;;;;;;;18.67;8.93;;;13.40;99.90;;;;;;5035643;28;20564;-74
2022/06/09 03:13:27;;;;;;;20.47;9.67;;;13.40;99.90;;;;;;5028289;28;20193;-75
2022/06/09 03:15:53;;;;;;;20.40;9.03;;;13.40;99.90;;;;;;5064312;28;20182;-75
2022/06/09 03:18:18;;;;;;;20.50;8.33;;;13.40;99.90;;;;;;5052542;28;20593;-76
2022/06/09 03:20:45;;;;;;;29.60;11.63;;;13.30;99.90;;;;;;5033059;28;20254;-75
2022/06/09 03:23:11;;;;;;;14.60;7.33;;;13.40;99.90;;;;;;5047479;28;20246;-78
2022/06/09 03:25:37;;;;;;;12.10;7.10;;;13.30;99.90;;;;;;5066504;28;20929;-76
2022/06/09 03:28:04;;;;;;;25.77;10.20;;;13.30;99.90;;;;;;5054838;28;20208;-76
2022/06/09 03:30:29;;;;;;;21.63;9.30;;;13.30;99.90;;;;;;5057331;28;20436;-75
2022/06/09 03:32:55;;;;;;;20.63;8.83;;;13.20;99.90;;;;;;5053346;28;20727;-76
2022/06/09 03:35:20;;;;;;;12.40;6.77;;;13.20;99.90;;;;;;5059591;28;20525;-76
2022/06/09 03:37:46;;;;;;;15.53;7.27;;;13.20;99.90;;;;;;5046445;28;20752;-76
2022/06/09 03:40:15;;;;;;;16.20;7.43;;;13.20;99.90;;;;;;5059424;28;20182;-76
2022/06/09 03:42:40;;;;;;;18.53;8.53;;;13.20;99.90;;;;;;5065866;28;20239;-76
2022/06/09 03:45:07;;;;;;;14.77;7.03;;;13.30;99.90;;;;;;5060560;28;20925;-76
2022/06/09 03:47:32;;;;;;;16.50;7.23;;;13.20;99.90;;;;;;5060555;28;20271;-76
2022/06/09 03:49:58;;;;;;;16.00;7.70;;;13.20;99.90;;;;;;5062684;28;20419;-75
2022/06/09 03:52:23;;;;;;;13.83;6.27;;;13.20;99.90;;;;;;5060852;28;20182;-76
2022/06/09 03:54:49;;;;;;;16.67;7.03;;;13.20;99.90;;;;;;5062517;28;20264;-76
2022/06/09 03:57:15;;;;;;;16.33;7.30;;;13.20;99.90;;;;;;5062581;28;20202;-76
2022/06/09 03:59:40;;;;;;;16.60;7.37;;;13.20;99.90;;;;;;5043739;28;20236;-75
2022/06/09 04:02:06;;;;;;;16.57;7.00;;;13.20;99.90;;;;;;5044101;28;20170;-76
2022/06/09 04:04:31;;;;;;;15.40;7.37;;;13.20;99.90;;;;;;5060368;28;20186;-75
2022/06/09 04:06:58;;;;;;;15.47;7.00;;;13.20;99.90;;;;;;5062149;28;20174;-76
2022/06/09 04:09:23;;;;;;;14.77;6.50;;;13.20;99.90;;;;;;5060949;28;20261;-76
2022/06/09 04:11:49;;;;;;;14.43;5.83;;;13.20;99.90;;;;;;5062117;28;20524;-76
2022/06/09 04:14:15;;;;;;;13.10;6.57;;;13.30;99.90;;;;;;5062722;28;20190;-76
2022/06/09 04:16:44;;;;;;;16.03;7.17;;;13.30;99.90;;;;;;5061776;28;20186;-76
2022/06/09 04:19:13;;;;;;;13.30;6.27;;;13.20;99.90;;;;;;5061473;28;20210;-78
2022/06/09 04:21:39;;;;;;;21.00;8.80;;;13.30;99.90;;;;;;5060993;28;20421;-76
2022/06/09 04:24:05;;;;;;;14.60;6.97;;;13.30;99.90;;;;;;5062687;28;20431;-76
2022/06/09 04:26:34;;;;;;;18.50;8.40;;;13.30;99.90;;;;;;5042794;28;20417;-76
2022/06/09 04:29:00;;;;;;;16.50;7.40;;;13.30;99.90;;;;;;5062179;28;20451;-78
2022/06/09 04:31:26;;;;;;;17.07;7.47;;;13.40;99.90;;;;;;5061033;28;20432;-77
2022/06/09 04:33:51;;;;;;;14.17;6.97;;;13.40;99.90;;;;;;5038658;28;20185;-75
2022/06/09 04:36:19;;;;;;;20.00;8.43;;;13.40;99.90;;;;;;5042674;28;20177;-75
2022/06/09 04:38:45;;;;;;;19.07;8.40;;;13.40;99.90;;;;;;5061455;28;20296;-77
2022/06/09 04:41:12;;;;;;;15.70;6.37;;;13.50;99.90;;;;;;5043606;28;20486;-77
2022/06/09 04:43:39;;;;;;;17.80;7.77;;;13.50;99.90;;;;;;5059368;28;20471;-75
2022/06/09 04:46:05;;;;;;;15.67;6.83;;;13.50;99.90;;;;;;5061845;28;20424;-75
2022/06/09 04:48:31;;;;;;;20.77;8.53;;;13.60;99.90;;;;;;5042409;28;20477;-77
2022/06/09 04:50:57;;;;;;;27.47;11.13;;;13.60;99.90;;;;;;5043606;28;20892;-77
2022/06/09 04:53:24;;;;;;;14.30;6.50;;;13.60;99.90;;;;;;5045033;28;20185;-77
2022/06/09 04:55:49;;;;;;;15.13;7.07;;;13.50;99.90;;;;;;5063602;28;20446;-77
2022/06/09 04:58:16;;;;;;;13.57;6.20;;;13.60;99.90;;;;;;5044798;28;20495;-77
2022/06/09 05:00:41;;;;;;;15.10;6.63;;;13.60;99.90;;;;;;5042252;28;20190;-75
2022/06/09 05:03:11;;;;;;;14.27;6.30;;;13.60;99.90;;;;;;5045624;28;20420;-76
2022/06/09 05:05:39;;;;;;;17.43;7.57;;;13.60;99.90;;;;;;5060277;28;20209;-76
2022/06/09 05:08:05;;;;;;;20.13;8.20;;;13.60;99.90;;;;;;5063840;28;20466;-76
2022/06/09 05:10:31;;;;;;;17.20;6.97;;;13.60;99.90;;;;;;5044267;28;20913;-76
2022/06/09 05:12:58;;;;;;;19.80;8.27;;;13.60;99.90;;;;;;5064037;28;20186;-77
2022/06/09 05:15:23;;;;;;;15.37;6.97;;;13.60;99.90;;;;;;5062707;28;20428;-77
2022/06/09 05:17:51;;;;;;;17.63;7.43;;;13.80;99.90;;;;;;5059331;28;20995;-76
2022/06/09 05:20:19;;;;;;;14.97;6.80;;;13.70;99.90;;;;;;5065402;28;20259;-76
2022/06/09 05:22:45;;;;;;;16.77;7.43;;;13.80;99.90;;;;;;5040656;28;20520;-77
2022/06/09 05:25:11;;;;;;;14.40;6.70;;;13.90;99.90;;;;;;5047290;28;20644;-76
2022/06/09 05:27:36;;;;;;;19.03;8.03;;;13.90;99.90;;;;;;5060408;28;20220;-76
2022/06/09 05:30:04;;;;;;;13.13;5.73;;;14.00;99.90;;;;;;5064416;28;20543;-76
2022/06/09 05:32:30;;;;;;;11.37;5.70;;;14.10;99.90;;;;;;5055629;28;20695;-76
2022/06/09 05:34:56;;;;;;;19.30;8.00;;;14.20;99.90;;;;;;5041346;28;20488;-76
2022/06/09 05:37:21;;;;;;;22.63;7.47;;;14.30;99.90;;;;;;5047125;28;20317;-75
2022/06/09 05:45:16;;;;;;;29.90;11.63;;;14.40;99.90;;;;;;5059558;28;20770;-76
2022/06/09 05:47:42;;;;;;;18.57;7.07;;;14.50;99.90;;;;;;5061029;28;20947;-75
2022/06/09 05:50:09;;;;;;;15.93;6.67;;;14.50;99.90;;;;;;5043599;28;20428;-76
2022/06/09 05:52:34;;;;;;;19.23;6.47;;;14.60;99.90;;;;;;5059527;28;20431;-76
2022/06/09 05:55:00;;;;;;;30.60;10.83;;;14.70;99.90;;;;;;5061167;28;20424;-75
2022/06/09 05:57:27;;;;;;;14.33;6.63;;;14.80;99.90;;;;;;5060424;28;20264;-75
2022/06/09 05:59:53;;;;;;;19.83;7.27;;;14.80;99.90;;;;;;5061559;28;20503;-77
2022/06/09 06:02:22;;;;;;;20.87;7.43;;;14.90;99.90;;;;;;5043431;28;20959;-75
2022/06/09 06:04:47;;;;;;;18.17;7.63;;;15.10;99.90;;;;;;5052226;28;20683;-75
2022/06/09 06:07:13;;;;;;;13.97;5.97;;;15.10;99.90;;;;;;5065264;28;20809;-75
2022/06/09 06:09:39;;;;;;;17.10;6.70;;;15.20;99.90;;;;;;5063921;28;20201;-77
2022/06/09 06:12:05;;;;;;;11.63;4.73;;;15.30;99.90;;;;;;5064340;28;20610;-77
2022/06/09 06:14:31;;;;;;;20.13;6.17;;;15.30;99.90;;;;;;5064201;28;20210;-77
2022/06/09 06:16:57;;;;;;;24.00;6.90;;;15.40;99.90;;;;;;5064758;28;20503;-77
2022/06/09 06:19:23;;;;;;;11.43;4.50;;;15.40;99.90;;;;;;5061989;28;20551;-76
2022/06/09 06:21:51;;;;;;;15.63;6.37;;;15.30;99.90;;;;;;5046098;28;20181;-78
2022/06/09 06:24:17;;;;;;;18.13;6.97;;;15.40;99.90;;;;;;5063846;28;20412;-75
2022/06/09 06:26:44;;;;;;;12.57;5.40;;;15.50;99.90;;;;;;5063781;28;20430;-76
2022/06/09 06:29:15;;;;;;;13.80;4.97;;;15.50;99.90;;;;;;5064063;28;20514;-76
2022/06/09 06:31:41;;;;;;;19.17;6.93;;;15.60;99.90;;;;;;5063071;28;20409;-76
2022/06/09 06:34:07;;;;;;;26.03;8.50;;;15.80;99.90;;;;;;5058793;28;20423;-76
2022/06/09 06:36:32;;;;;;;17.77;5.50;;;15.90;99.90;;;;;;5061775;28;20508;-77
2022/06/09 06:38:58;;;;;;;12.10;4.70;;;15.80;99.90;;;;;;5046394;28;20214;-76
2022/06/09 06:41:24;;;;;;;14.93;6.03;;;15.90;99.90;;;;;;5062269;28;20185;-76
2022/06/09 06:43:50;;;;;;;19.97;7.60;;;16.00;99.90;;;;;;5063731;28;20166;-77
2022/06/09 06:46:16;;;;;;;17.13;6.53;;;16.00;99.90;;;;;;5064095;28;20681;-77
2022/06/09 06:48:42;;;;;;;16.17;5.83;;;16.00;99.90;;;;;;5061304;28;20210;-76
2022/06/09 06:51:08;;;;;;;20.23;6.57;;;15.90;99.90;;;;;;5047657;28;20793;-76
2022/06/09 06:53:35;;;;;;;16.10;5.30;;;15.90;99.90;;;;;;5045026;28;20178;-75
2022/06/09 06:56:00;;;;;;;15.40;5.67;;;15.90;99.90;;;;;;5065478;28;20174;-77
2022/06/09 06:58:26;;;;;;;12.07;4.63;;;15.80;99.90;;;;;;5044991;28;20853;-77
2022/06/09 07:00:52;;;;;;;32.40;10.17;;;15.80;99.90;;;;;;5060267;28;20594;-77
2022/06/09 07:03:17;;;;;;;16.90;6.07;;;15.80;99.90;;;;;;5066368;28;20193;-76
2022/06/09 07:05:43;;;;;;;19.90;7.50;;;15.80;99.90;;;;;;5042669;28;20179;-74
2022/06/09 07:08:09;;;;;;;14.57;5.40;;;16.00;99.90;;;;;;5065076;28;20591;-75
2022/06/09 07:10:35;;;;;;;14.33;5.50;;;16.00;99.90;;;;;;5044142;28;20186;-78
2022/06/09 07:13:01;;;;;;;12.37;5.43;;;16.20;99.90;;;;;;5046720;28;20245;-76
2022/06/09 07:15:27;;;;;;;13.97;4.87;;;16.20;99.90;;;;;;5062627;28;20821;-75
2022/06/09 07:17:53;;;;;;;13.70;5.40;;;16.10;99.90;;;;;;5059691;28;20569;-75
2022/06/09 07:20:19;;;;;;;13.00;5.40;;;16.20;99.90;;;;;;5047750;28;20451;-77
2022/06/09 07:22:45;;;;;;;13.17;5.73;;;16.10;99.90;;;;;;5059894;28;20178;-76
2022/06/09 07:25:19;;;;;;;24.87;8.57;;;16.10;99.90;;;;;;5047727;28;20416;-78
2022/06/09 07:27:45;;;;;;;10.33;4.40;;;16.00;99.90;;;;;;5041694;28;20441;-75
2022/06/09 07:30:11;;;;;;;60.27;16.93;;;16.00;99.90;;;;;;5081217;22;20482;-78
2022/06/09 07:32:37;;;;;;;23.23;7.10;;;16.10;99.90;;;;;;5001243;28;20503;-78
2022/06/09 07:35:04;;;;;;;14.23;5.10;;;16.10;99.90;;;;;;5018552;28;20553;-78
2022/06/09 07:37:29;;;;;;;13.30;5.83;;;16.20;99.90;;;;;;5008333;28;20207;-77
2022/06/09 07:39:55;;;;;;;15.70;4.80;;;16.30;99.90;;;;;;5019829;28;20461;-79
2022/06/09 07:42:20;;;;;;;12.33;4.70;;;16.20;99.90;;;;;;5026252;28;20183;-78
2022/06/09 07:44:46;;;;;;;17.70;5.53;;;16.20;99.90;;;;;;5019736;28;20561;-79
2022/06/09 07:47:12;;;;;;;15.93;5.10;;;16.20;99.90;;;;;;5001927;28;20230;-77
2022/06/09 07:49:37;;;;;;;16.20;5.67;;;16.20;99.90;;;;;;5022150;28;20184;-78
2022/06/09 07:52:04;;;;;;;13.47;4.80;;;16.20;99.90;;;;;;5022357;28;20198;-78
2022/06/09 07:54:29;;;;;;;15.77;6.00;;;16.30;99.90;;;;;;5002846;28;20187;-78
2022/06/09 07:56:55;;;;;;;11.73;4.77;;;16.40;99.90;;;;;;5024624;28;20469;-77
2022/06/09 07:59:20;;;;;;;12.43;4.57;;;16.50;99.90;;;;;;5019375;28;20211;-78
2022/06/09 08:01:46;;;;;;;16.70;5.83;;;16.60;99.90;;;;;;5004578;28;20230;-79
2022/06/09 08:04:13;;;;;;;13.03;5.10;;;16.70;99.90;;;;;;5020756;28;20207;-79
2022/06/09 08:06:39;;;;;;;17.60;5.80;;;16.80;99.90;;;;;;5005466;28;20230;-80
2022/06/09 08:09:04;;;;;;;16.90;6.70;;;16.70;99.90;;;;;;5020436;28;20953;-80
2022/06/09 08:11:33;;;;;;;15.10;5.30;;;16.70;99.90;;;;;;5001754;28;20447;-79
2022/06/09 08:14:01;;;;;;;13.17;5.30;;;16.70;99.90;;;;;;5004034;28;20184;-79
2022/06/09 08:16:28;;;;;;;12.17;4.30;;;16.60;99.90;;;;;;5022757;28;20430;-78
2022/06/09 08:18:54;;;;;;;14.53;5.90;;;16.30;99.90;;;;;;5025421;28;20536;-79
2022/06/09 08:21:19;;;;;;;8.70;3.93;;;16.10;99.90;;;;;;5025289;28;20468;-78
2022/06/09 08:23:45;;;;;;;13.10;5.80;;;16.00;99.90;;;;;;5023587;28;20480;-79
2022/06/09 08:26:10;;;;;;;14.43;5.87;;;16.10;99.90;;;;;;5022344;28;20180;-78
2022/06/09 08:28:36;;;;;;;29.67;10.30;;;16.10;99.90;;;;;;5021359;28;20302;-79
2022/06/09 08:31:02;;;;;;;24.07;7.93;;;16.30;99.90;;;;;;5024515;28;20243;-79
2022/06/09 08:33:27;;;;;;;13.87;4.90;;;16.30;99.90;;;;;;5014275;28;20190;-78
2022/06/09 08:35:54;;;;;;;11.77;4.70;;;16.30;99.90;;;;;;5022769;28;20183;-78
2022/06/09 08:38:20;;;;;;;12.60;6.07;;;16.30;99.90;;;;;;5019743;28;20198;-78
2022/06/09 08:40:54;;;;;;;16.67;6.37;;;16.50;99.90;;;;;;5022036;28;20444;-80
2022/06/09 08:43:45;;;;;;;13.07;5.63;;;16.50;99.90;;;;;;5021739;28;20438;-78
2022/06/09 08:46:29;;;;;;;22.20;7.97;;;16.50;99.90;;;;;;5015446;28;20414;-80
2022/06/09 08:48:56;;;;;;;17.53;7.27;;;16.50;99.90;;;;;;5016438;28;20422;-79
2022/06/09 08:51:38;;;;;;;18.73;7.30;;;16.50;99.90;;;;;;5018468;28;20480;-79
2022/06/09 08:54:33;;;;;;;14.03;5.33;;;16.40;99.90;;;;;;5019407;28;20793;-78
2022/06/09 08:57:04;;;;;;;9.83;4.80;;;16.30;99.90;;;;;;5011622;28;20501;-79
2022/06/09 08:59:37;;;;;;;13.10;5.30;;;16.50;99.90;;;;;;5017547;28;20462;-79
2022/06/09 09:02:24;;;;;;;15.80;6.50;;;16.50;99.90;;;;;;5020771;28;20442;-79
2022/06/09 09:05:01;;;;;;;14.80;5.77;;;16.60;99.90;;;;;;5010497;28;20782;-79
2022/06/09 09:07:31;;;;;;;13.60;5.43;;;16.90;99.90;;;;;;5021107;28;20413;-77
2022/06/09 09:10:34;;;;;;;13.43;5.63;;;17.00;99.90;;;;;;5021037;28;20516;-78
2022/06/09 09:13:15;;;;;;;16.60;6.50;;;16.90;99.90;;;;;;5013193;28;20892;-77
2022/06/09 09:16:04;;;;;;;18.53;6.70;;;17.00;99.90;;;;;;5031233;28;20773;-80
2022/06/09 09:18:52;;;;;;;12.90;5.33;;;17.00;99.90;;;;;;5020014;28;20474;-80
2022/06/09 09:21:47;;;;;;;11.13;4.60;;;16.60;99.90;;;;;;5037983;28;20784;-78
2022/06/09 09:24:21;;;;;;;9.70;4.70;;;16.60;99.90;;;;;;4996707;28;20449;-79
2022/06/09 09:26:55;;;;;;;16.87;6.53;;;16.30;99.90;;;;;;5018787;28;20472;-78
2022/06/09 09:29:28;;;;;;;12.70;5.73;;;16.10;99.90;;;;;;5021054;28;20409;-80
2022/06/09 09:32:01;;;;;;;13.43;6.87;;;15.80;99.90;;;;;;5010737;28;20457;-78
2022/06/09 09:34:34;;;;;;;12.80;6.13;;;15.60;99.90;;;;;;5011464;28;20986;-77
2022/06/09 09:37:13;;;;;;;14.33;6.27;;;15.60;99.90;;;;;;5022514;28;20420;-77
2022/06/09 09:39:56;;;;;;;15.13;6.70;;;15.60;99.90;;;;;;5023304;28;20799;-78
2022/06/09 09:42:26;;;;;;;16.20;5.87;;;15.50;99.90;;;;;;5029093;28;20417;-78
2022/06/09 09:45:15;;;;;;;13.63;6.43;;;15.80;99.90;;;;;;5020907;28;20419;-78
2022/06/09 09:48:01;;;;;;;18.43;7.27;;;16.00;99.90;;;;;;5024547;28;20880;-78
2022/06/09 09:50:38;;;;;;;12.03;5.10;;;16.00;99.90;;;;;;5022593;28;20450;-78
2022/06/09 09:53:26;;;;;;;13.43;6.47;;;16.10;99.90;;;;;;5024043;28;20428;-78
2022/06/09 09:56:15;;;;;;;15.20;5.67;;;16.20;99.90;;;;;;5024334;28;20454;-80
2022/06/09 09:58:57;;;;;;;10.67;4.40;;;16.10;99.90;;;;;;5021841;28;20461;-78
2022/06/09 10:01:23;;;;;;;15.93;5.53;;;16.30;99.90;;;;;;5018981;28;20549;-78
2022/06/09 10:09:38;;;;;;;25.13;8.53;;;16.60;99.90;;;;;;5024782;28;20429;-78
2022/06/09 10:12:23;;;;;;;9.73;3.80;;;16.70;99.90;;;;;;5025688;28;20445;-79
2022/06/09 10:14:56;;;;;;;13.83;4.53;;;16.70;99.90;;;;;;5025513;28;20434;-76
2022/06/09 10:17:32;;;;;;;13.20;5.13;;;16.70;99.90;;;;;;5023947;28;20418;-77
2022/06/09 10:20:19;;;;;;;17.00;4.80;;;16.80;99.90;;;;;;5014020;28;20419;-77
2022/06/09 10:23:11;;;;;;;9.83;4.07;;;16.80;99.90;;;;;;5026920;28;20445;-77
2022/06/09 10:25:44;;;;;;;11.80;4.23;;;16.90;99.90;;;;;;5029006;28;20813;-77
2022/06/09 10:28:19;;;;;;;7.97;3.40;;;16.90;99.90;;;;;;5020941;28;20803;-78
2022/06/09 10:30:53;;;;;;;16.80;5.73;;;16.90;99.90;;;;;;5029015;28;20476;-78
2022/06/09 10:33:38;;;;;;;4.97;2.73;;;17.00;99.90;;;;;;5015116;28;20944;-79
2022/06/09 10:36:28;;;;;;;10.57;4.17;;;17.10;99.90;;;;;;4996686;28;20449;-78
2022/06/09 10:39:16;;;;;;;8.70;3.57;;;17.20;99.90;;;;;;5024019;28;20449;-78
2022/06/09 10:41:49;;;;;;;11.07;4.47;;;17.30;99.90;;;;;;5017204;28;20444;-79
2022/06/09 10:44:34;;;;;;;11.43;4.40;;;17.40;99.90;;;;;;5025498;28;20750;-78
2022/06/09 10:55:55;;;;;;;12.73;5.33;;;17.30;99.90;;;;;;5025257;28;20408;-79
2022/06/09 10:58:30;;;;;;;18.60;5.87;;;17.10;99.90;;;;;;5025253;28;20897;-79
2022/06/09 11:00:58;;;;;;;26.43;8.33;;;17.20;99.90;;;;;;5020083;28;20438;-80
2022/06/09 11:03:29;;;;;;;6.13;2.93;;;17.20;99.90;;;;;;5030420;28;20420;-79
2022/06/09 11:06:00;;;;;;;10.90;4.33;;;17.40;99.90;;;;;;5026037;28;20933;-79
2022/06/09 11:08:58;;;;;;;13.67;5.23;;;17.50;99.90;;;;;;5020247;28;20987;-78
2022/06/09 11:11:46;;;;;;;7.87;3.50;;;17.60;99.90;;;;;;5000547;28;20512;-78
2022/06/09 11:14:34;;;;;;;16.10;5.73;;;17.70;99.90;;;;;;5025484;28;20472;-78
2022/06/09 11:17:14;;;;;;;11.77;4.77;;;17.90;99.90;;;;;;5015010;28;20417;-80
2022/06/09 11:19:49;;;;;;;9.97;4.50;;;;;;;;;;5022861;28;20457;-80
2022/06/09 11:22:28;;;;;;;15.50;5.47;;;17.90;99.90;;;;;;5017028;28;20437;-79
2022/06/09 11:25:05;;;;;;;14.90;6.23;;;18.00;99.90;;;;;;5038855;28;20429;-79
2022/06/09 11:27:48;;;;;;;22.23;7.53;;;18.00;99.90;;;;;;5038622;28;20409;-82
2022/06/09 11:30:35;;;;;;;9.50;4.17;;;18.20;99.90;;;;;;5036615;28;20477;-81
2022/06/09 11:33:40;;;;;;;17.10;6.53;;;18.20;99.90;;;;;;5031197;28;20437;-79
2022/06/09 11:36:18;;;;;;;15.70;5.43;;;18.20;99.90;;;;;;5022686;28;20418;-79
2022/06/09 11:39:13;;;;;;;18.57;6.50;;;18.20;99.90;;;;;;5019125;28;20453;-80
2022/06/09 11:42:00;;;;;;;21.13;7.67;;;18.30;99.90;;;;;;5019925;28;20446;-80
2022/06/09 11:44:41;;;;;;;20.43;7.23;;;18.50;99.90;;;;;;5032280;28;20479;-78
2022/06/09 11:47:13;;;;;;;24.63;8.43;;;18.30;99.90;;;;;;5025346;28;20410;-78
2022/06/09 11:49:43;;;;;;;19.80;8.33;;;18.20;99.90;;;;;;5029514;28;20442;-79
2022/06/09 11:52:16;;;;;;;24.20;9.10;;;18.40;99.90;;;;;;5029725;28;20434;-80
2022/06/09 11:54:54;;;;;;;20.83;6.93;;;18.70;99.90;;;;;;5023121;28;20751;-78
2022/06/09 11:57:25;;;;;;;19.53;7.90;;;18.60;99.90;;;;;;5017913;28;20528;-79
2022/06/09 11:59:52;;;;;;;16.73;6.87;;;18.50;99.90;;;;;;4992521;28;20409;-77
2022/06/09 12:02:48;;;;;;;11.53;5.17;;;18.50;99.90;;;;;;5023112;28;20766;-79
2022/06/09 12:05:46;;;;;;;16.03;5.87;;;18.50;99.90;;;;;;5019653;28;20425;-79
2022/06/09 12:08:44;;;;;;;18.07;6.73;;;18.80;99.90;;;;;;5016583;28;20418;-78
2022/06/09 12:11:19;;;;;;;17.83;6.83;;;19.60;99.90;;;;;;5010833;28;20451;-80
2022/06/09 12:14:14;;;;;;;10.13;4.47;;;19.80;99.90;;;;;;5031651;28;20445;-80
2022/06/09 12:16:56;;;;;;;11.53;5.73;;;20.30;99.90;;;;;;5021973;28;20418;-79
2022/06/09 12:19:23;;;;;;;10.90;5.30;;;21.00;99.90;;;;;;5021072;28;20451;-78
2022/06/09 12:21:58;;;;;;;12.10;5.60;;;20.70;99.90;;;;;;5026677;28;20470;-78
2022/06/09 12:24:30;;;;;;;11.27;5.10;;;20.80;99.90;;;;;;5013836;28;20434;-80
2022/06/09 12:27:06;;;;;;;13.20;6.20;;;21.30;99.90;;;;;;5022143;28;20429;-78
2022/06/09 12:29:34;;;;;;;17.90;8.37;;;21.70;99.90;;;;;;5021393;28;20448;-79
2022/06/09 12:32:09;;;;;;;13.30;6.30;;;22.10;99.90;;;;;;5018349;28;20468;-79
2022/06/09 12:34:41;;;;;;;11.67;6.47;;;22.10;99.90;;;;;;5019688;28;20508;-80
2022/06/09 12:37:19;;;;;;;12.83;6.97;;;22.40;99.90;;;;;;5000101;28;20472;-80
2022/06/09 12:39:52;;;;;;;28.20;26.10;;;22.40;99.90;;;;;;5018580;28;20989;-79
2022/06/09 12:42:32;;;;;;;11.13;5.73;;;22.40;99.90;;;;;;5023024;28;20772;-79
2022/06/09 12:45:15;;;;;;;30.77;27.13;;;22.40;99.90;;;;;;4998530;28;20953;-79
2022/06/09 12:47:59;;;;;;;31.07;28.90;;;22.30;99.90;;;;;;5022075;28;20450;-77
2022/06/09 12:50:36;;;;;;;13.10;7.97;;;23.20;99.90;;;;;;5021354;28;20445;-77
2022/06/09 12:53:04;;;;;;;28.67;24.20;;;23.20;99.90;;;;;;5017637;28;20806;-78
2022/06/09 12:55:36;;;;;;;64.00;60.43;;;23.80;99.90;;;;;;5015645;28;20533;-80
2022/06/09 12:58:07;;;;;;;135.67;131.57;;;24.00;99.90;;;;;;5039946;28;20461;-81
2022/06/09 13:00:39;;;;;;;14.37;10.00;;;24.10;99.90;;;;;;5044629;28;20469;-80
2022/06/09 13:03:39;;;;;;;247.63;238.87;;;24.30;99.90;;;;;;5016346;28;20476;-78
2022/06/09 13:06:26;;;;;;;434.87;418.27;;;23.80;99.90;;;;;;5007884;28;20427;-78
2022/06/09 13:08:55;;;;;;;256.50;248.10;;;23.30;99.90;;;;;;5000452;28;20440;-78
2022/06/09 13:12:50;;;;;;;11.80;7.73;;;22.90;99.90;;;;;;5018719;28;20446;-78
2022/06/09 13:14:10;;;;;;;13.53;5.77;;;22.30;99.90;;;;;;5018578;28;20427;-80
2022/06/09 13:16:42;;;;;;;13.33;6.57;;;22.30;99.90;;;;;;5007855;28;20951;-80
2022/06/09 13:19:11;;;;;;;218.27;208.33;;;22.50;99.90;;;;;;5024300;28;20832;-79